"WATCHING THE WEATHER TO PROTECT LIFE AND PROPERTY"


Aviation
Satellite (InfraRed)


TNCA 250300Z 10011KT 7000 FEW018 28/25 Q1010 NOSIG
TNCB 250255Z AUTO 09015KT 9999 FEW012/// 27/24 Q1010
TNCC 250300Z 11010KT 9999 FEW017 27/24 Q1011 NOSIG